createdAt,value
2022-08-04T00:00:59.453Z,25.20
2022-08-04T00:03:30.051Z,25.10
2022-08-04T00:06:01.541Z,25.10
2022-08-04T00:08:35.291Z,25.10
2022-08-04T00:11:03.821Z,25.10
2022-08-04T00:13:38.363Z,25.20
2022-08-04T00:16:31.448Z,25.10
2022-08-04T00:19:03.375Z,25.00
2022-08-04T00:21:33.011Z,25.00
2022-08-04T00:24:11.508Z,25.10
2022-08-04T00:26:41.573Z,25.00
2022-08-04T00:29:11.682Z,25.00
2022-08-04T00:31:56.775Z,25.00
2022-08-04T00:34:26.791Z,24.90
2022-08-04T00:36:55.803Z,24.90
2022-08-04T00:39:24.233Z,24.90
2022-08-04T00:42:12.473Z,24.80
2022-08-04T00:44:47.701Z,24.70
2022-08-04T00:47:26.504Z,24.80
2022-08-04T00:50:09.618Z,24.70
2022-08-04T00:52:56.680Z,24.60
2022-08-04T00:55:33.241Z,24.60
2022-08-04T00:58:07.671Z,24.60
2022-08-04T01:00:49.970Z,24.60
2022-08-04T01:03:21.822Z,24.50
2022-08-04T01:05:54.972Z,24.50
2022-08-04T01:08:40.961Z,24.50
2022-08-04T01:11:15.951Z,24.40
2022-08-04T01:13:53.792Z,24.40
2022-08-04T01:16:26.240Z,24.40
2022-08-04T01:18:57.580Z,24.30
2022-08-04T01:21:51.891Z,24.30
2022-08-04T01:24:30.362Z,24.20
2022-08-04T01:27:00.793Z,24.20
2022-08-04T01:29:43.741Z,24.10
2022-08-04T01:32:19.477Z,24.10
2022-08-04T01:34:52.771Z,23.90
2022-08-04T01:37:26.586Z,23.90
2022-08-04T01:40:01.731Z,23.90
2022-08-04T01:42:32.621Z,23.80
2022-08-04T01:45:05.486Z,23.80
2022-08-04T01:47:36.572Z,23.70
2022-08-04T01:50:07.890Z,23.70
2022-08-04T01:52:37.284Z,23.70
2022-08-04T01:55:06.840Z,23.70
2022-08-04T01:57:37.747Z,23.70
2022-08-04T02:00:11.321Z,23.70
2022-08-04T02:02:40.186Z,23.60
2022-08-04T02:05:11.174Z,23.50
2022-08-04T02:07:46.610Z,23.30
2022-08-04T02:10:19.610Z,23.30
2022-08-04T02:12:57.631Z,23.30
2022-08-04T02:15:32.051Z,23.20
2022-08-04T02:18:05.240Z,23.20
2022-08-04T02:20:35.791Z,23.20
2022-08-04T02:23:05.782Z,23.10
2022-08-04T02:25:36.261Z,23.10
2022-08-04T02:28:09.772Z,23.00
2022-08-04T02:30:42.004Z,22.90
2022-08-04T02:33:12.631Z,22.80
2022-08-04T02:35:42.611Z,22.90
2022-08-04T02:38:25.285Z,22.80
2022-08-04T02:40:59.196Z,22.80
2022-08-04T02:43:50.831Z,22.80
2022-08-04T02:46:20.592Z,22.80
2022-08-04T02:48:50.411Z,22.60
2022-08-04T02:51:21.130Z,22.50
2022-08-04T02:53:51.432Z,22.50
2022-08-04T02:56:20.810Z,22.50
2022-08-04T02:58:51.770Z,22.40
2022-08-04T03:01:22.895Z,22.40
2022-08-04T03:03:54.740Z,22.30
2022-08-04T03:06:37.832Z,22.40
2022-08-04T03:09:19.580Z,22.30
2022-08-04T03:11:57.780Z,22.30
2022-08-04T03:14:44.551Z,22.20
2022-08-04T03:17:29.000Z,22.20
2022-08-04T03:20:08.980Z,22.20
2022-08-04T03:23:12.104Z,22.20
2022-08-04T03:25:57.250Z,22.10
2022-08-04T03:28:38.401Z,22.10
2022-08-04T03:31:25.131Z,22.10
2022-08-04T03:34:01.801Z,22.10
2022-08-04T03:36:47.362Z,22.10
2022-08-04T03:39:34.149Z,22.00
2022-08-04T03:42:14.259Z,21.90
2022-08-04T03:44:56.152Z,21.90
2022-08-04T03:47:42.329Z,22.10
2022-08-04T03:50:20.400Z,22.10
2022-08-04T03:53:11.443Z,22.10
2022-08-04T03:55:46.742Z,22.10
2022-08-04T03:58:34.180Z,22.10
2022-08-04T04:01:07.592Z,22.20
2022-08-04T04:03:54.201Z,22.10
2022-08-04T04:06:38.453Z,22.20
2022-08-04T04:09:28.761Z,22.20
2022-08-04T04:12:19.420Z,22.20
2022-08-04T04:14:55.282Z,22.20
2022-08-04T04:17:32.321Z,22.80
2022-08-04T04:20:26.881Z,23.50
2022-08-04T04:23:15.840Z,24.10
2022-08-04T04:25:51.300Z,24.50
2022-08-04T04:28:45.507Z,24.80
2022-08-04T04:31:24.710Z,25.30
2022-08-04T04:33:59.691Z,25.60
2022-08-04T04:36:33.110Z,25.50
2022-08-04T04:39:12.751Z,25.70
2022-08-04T04:41:49.102Z,26.00
2022-08-04T04:44:33.041Z,26.50
2022-08-04T04:47:05.100Z,26.90
2022-08-04T04:49:36.240Z,27.10
2022-08-04T04:52:09.056Z,27.20
2022-08-04T04:54:40.990Z,27.30
2022-08-04T04:57:13.802Z,27.60
2022-08-04T04:59:46.741Z,27.50
2022-08-04T05:02:25.983Z,27.30
2022-08-04T05:05:04.392Z,27.00
2022-08-04T05:07:58.699Z,26.80
2022-08-04T05:10:35.012Z,26.50
2022-08-04T05:14:38.406Z,26.20
2022-08-04T05:16:08.731Z,25.90
2022-08-04T05:18:38.960Z,25.70
2022-08-04T05:21:16.861Z,25.50
2022-08-04T05:23:47.740Z,25.40
2022-08-04T05:26:18.290Z,25.30
2022-08-04T05:28:50.301Z,25.20
2022-08-04T05:31:20.541Z,25.10
2022-08-04T05:33:50.341Z,25.30
2022-08-04T05:36:35.361Z,25.30
2022-08-04T05:39:13.644Z,25.30
2022-08-04T05:41:46.202Z,25.40
2022-08-04T05:44:18.322Z,25.60
2022-08-04T05:46:54.027Z,25.60
2022-08-04T05:49:24.378Z,25.50
2022-08-04T05:51:54.552Z,25.20
2022-08-04T05:54:23.744Z,25.20
2022-08-04T05:56:55.231Z,25.30
2022-08-04T05:59:25.861Z,25.50
2022-08-04T06:01:57.452Z,25.80
2022-08-04T06:04:28.380Z,25.80
2022-08-04T06:06:56.795Z,25.70
2022-08-04T06:09:25.098Z,25.80
2022-08-04T06:12:01.999Z,25.60
2022-08-04T06:14:35.240Z,25.40
2022-08-04T06:18:32.126Z,25.60
2022-08-04T06:20:02.539Z,25.70
2022-08-04T06:22:46.162Z,25.80
2022-08-04T06:25:17.231Z,26.00
2022-08-04T06:27:47.269Z,25.90
2022-08-04T06:30:19.388Z,25.80
2022-08-04T06:33:03.576Z,26.00
2022-08-04T06:35:33.930Z,26.10
2022-08-04T06:38:03.202Z,26.10
2022-08-04T06:40:33.775Z,26.30
2022-08-04T06:43:05.098Z,26.60
2022-08-04T06:45:35.765Z,26.70
2022-08-04T06:48:05.033Z,26.60
2022-08-04T06:51:32.427Z,26.60
2022-08-04T06:53:22.530Z,26.70
2022-08-04T06:55:51.771Z,26.70
2022-08-04T06:58:22.264Z,26.80
2022-08-04T07:00:51.021Z,26.70
2022-08-04T07:03:21.953Z,26.80
2022-08-04T07:05:50.770Z,26.70
2022-08-04T07:08:19.349Z,26.70
2022-08-04T07:10:47.940Z,26.70
2022-08-04T07:13:17.196Z,27.00
2022-08-04T07:15:47.465Z,27.20
2022-08-04T07:18:16.032Z,27.10
2022-08-04T07:20:45.006Z,27.20
2022-08-04T07:23:17.788Z,27.30
2022-08-04T07:25:59.627Z,27.30
2022-08-04T07:28:40.832Z,27.70
2022-08-04T07:31:34.514Z,27.90
2022-08-04T07:34:17.414Z,28.00
2022-08-04T07:36:50.592Z,28.00
2022-08-04T07:39:28.427Z,27.90
2022-08-04T07:41:58.351Z,28.00
2022-08-04T07:44:27.020Z,28.20
2022-08-04T07:46:56.981Z,28.20
2022-08-04T07:49:54.745Z,28.60
2022-08-04T07:52:15.831Z,28.60
2022-08-04T07:54:44.661Z,28.70
2022-08-04T07:57:20.933Z,28.90
2022-08-04T08:00:02.901Z,29.10
2022-08-04T08:02:33.502Z,29.20
2022-08-04T08:05:02.741Z,29.20
2022-08-04T08:07:32.201Z,29.30
2022-08-04T08:10:00.582Z,29.30
2022-08-04T08:12:36.409Z,29.40
2022-08-04T08:15:19.642Z,29.50
2022-08-04T08:17:58.501Z,29.70
2022-08-04T08:20:29.554Z,29.70
2022-08-04T08:22:58.924Z,29.90
2022-08-04T08:25:27.340Z,30.00
2022-08-04T08:27:56.303Z,30.10
2022-08-04T08:30:25.268Z,30.10
2022-08-04T08:33:05.790Z,30.20
2022-08-04T08:35:39.688Z,30.30
2022-08-04T08:38:17.240Z,30.40
2022-08-04T08:40:49.880Z,30.40
2022-08-04T08:44:04.862Z,30.50
2022-08-04T08:46:49.038Z,30.50
2022-08-04T08:50:02.660Z,30.70
2022-08-04T08:52:56.439Z,30.80
2022-08-04T08:55:32.559Z,30.90
2022-08-04T08:58:07.921Z,31.00
2022-08-04T09:00:42.801Z,31.10
2022-08-04T09:03:29.662Z,31.20
2022-08-04T09:06:11.480Z,31.30
2022-08-04T09:08:52.200Z,31.40
2022-08-04T09:11:21.604Z,31.40
2022-08-04T09:13:52.940Z,31.50
2022-08-04T09:16:23.480Z,31.70
2022-08-04T09:18:55.621Z,31.90
2022-08-04T09:21:30.220Z,31.90
2022-08-04T09:24:05.230Z,32.10
2022-08-04T09:26:59.913Z,32.10
2022-08-04T09:29:32.211Z,32.20
2022-08-04T09:32:06.984Z,32.40
2022-08-04T09:35:03.488Z,32.50
2022-08-04T09:37:45.996Z,32.60
2022-08-04T09:40:31.425Z,32.60
2022-08-04T09:43:14.071Z,32.60
2022-08-04T09:45:47.991Z,32.80
2022-08-04T09:48:22.026Z,32.80
2022-08-04T09:50:55.179Z,33.00
2022-08-04T09:53:31.340Z,33.00
2022-08-04T09:56:04.126Z,33.10
2022-08-04T09:58:50.001Z,33.40
2022-08-04T10:01:23.165Z,33.40
2022-08-04T10:03:53.800Z,33.40
2022-08-04T10:06:39.972Z,33.60
2022-08-04T10:09:18.640Z,33.60
2022-08-04T10:11:56.485Z,33.70
2022-08-04T10:14:41.980Z,33.80
2022-08-04T10:17:23.604Z,33.80
2022-08-04T10:19:57.853Z,33.90
2022-08-04T10:22:37.071Z,33.90
2022-08-04T10:25:37.683Z,34.10
2022-08-04T10:28:18.840Z,34.30
2022-08-04T10:30:50.553Z,34.40
2022-08-04T10:33:24.768Z,34.30
2022-08-04T10:35:55.590Z,34.30
2022-08-04T10:38:27.275Z,34.40
2022-08-04T10:41:00.242Z,34.50
2022-08-04T10:43:34.680Z,34.50
2022-08-04T10:46:07.140Z,34.40
2022-08-04T10:48:40.603Z,34.30
2022-08-04T10:51:13.210Z,34.40
2022-08-04T10:53:44.000Z,34.60
2022-08-04T10:56:15.056Z,34.70
2022-08-04T10:58:49.057Z,34.60
2022-08-04T11:02:00.078Z,34.40
2022-08-04T11:04:13.611Z,34.50
2022-08-04T11:06:42.401Z,34.70
2022-08-04T11:09:14.814Z,35.00
2022-08-04T11:12:00.850Z,34.90
2022-08-04T11:14:34.900Z,34.90
2022-08-04T11:17:07.260Z,34.80
2022-08-04T11:19:45.026Z,34.70
2022-08-04T11:22:19.052Z,34.90
2022-08-04T11:24:52.151Z,35.10
2022-08-04T11:27:24.179Z,35.10
2022-08-04T11:29:58.751Z,35.10
2022-08-04T11:32:33.392Z,34.90
2022-08-04T11:35:03.423Z,35.00
2022-08-04T11:37:37.941Z,35.00
2022-08-04T11:40:11.027Z,35.10
2022-08-04T11:42:40.501Z,35.10
2022-08-04T11:45:14.140Z,35.20
2022-08-04T11:47:45.811Z,35.20
2022-08-04T11:50:20.540Z,35.30
2022-08-04T11:52:49.461Z,35.60
2022-08-04T11:55:19.541Z,35.70
2022-08-04T11:57:54.395Z,35.70
2022-08-04T12:00:25.253Z,35.80
2022-08-04T12:03:08.331Z,35.70
2022-08-04T12:05:40.142Z,35.70
2022-08-04T12:08:19.562Z,35.60
2022-08-04T12:10:52.653Z,35.70
2022-08-04T12:13:28.183Z,35.70
2022-08-04T12:16:03.770Z,35.60
2022-08-04T12:18:36.120Z,35.70
2022-08-04T12:21:07.342Z,35.60
2022-08-04T12:23:40.071Z,35.80
2022-08-04T12:26:09.932Z,35.90
2022-08-04T12:29:09.198Z,35.80
2022-08-04T12:31:32.101Z,35.70
2022-08-04T12:34:04.384Z,35.80
2022-08-04T12:36:37.393Z,35.80
2022-08-04T12:39:10.748Z,35.80
2022-08-04T12:41:41.931Z,36.00
2022-08-04T12:44:37.438Z,36.00
2022-08-04T12:47:26.665Z,35.90
2022-08-04T12:50:00.105Z,36.00
2022-08-04T12:55:24.192Z,36.00
2022-08-04T12:57:53.343Z,35.80
2022-08-04T13:00:30.063Z,36.00
2022-08-04T13:03:09.637Z,35.90
2022-08-04T13:05:40.413Z,36.00
2022-08-04T13:08:10.152Z,36.10
2022-08-04T13:10:39.706Z,35.90
2022-08-04T13:13:13.200Z,35.90
2022-08-04T13:15:47.411Z,35.80
2022-08-04T13:18:30.419Z,36.30
2022-08-04T13:21:20.548Z,36.40
2022-08-04T13:24:19.032Z,36.40
2022-08-04T13:26:54.890Z,36.30
2022-08-04T13:29:57.698Z,35.90
2022-08-04T13:32:17.895Z,35.60
2022-08-04T13:34:52.515Z,35.80
2022-08-04T13:37:23.266Z,36.00
2022-08-04T13:39:56.708Z,36.10
2022-08-04T13:42:27.070Z,36.10
2022-08-04T13:44:57.696Z,36.20
2022-08-04T13:47:29.004Z,36.30
2022-08-04T13:50:21.370Z,36.30
2022-08-04T13:52:53.190Z,36.30
2022-08-04T13:55:28.005Z,36.20
2022-08-04T13:57:59.831Z,36.10
2022-08-04T14:00:30.779Z,36.10
2022-08-04T14:03:03.614Z,36.20
2022-08-04T14:06:06.689Z,36.20
2022-08-04T14:08:37.843Z,36.20
2022-08-04T14:11:07.020Z,36.10
2022-08-04T14:13:40.958Z,36.30
2022-08-04T14:16:17.480Z,36.30
2022-08-04T14:18:46.251Z,36.40
2022-08-04T14:21:15.302Z,36.40
2022-08-04T14:23:48.064Z,36.30
2022-08-04T14:26:19.731Z,36.20
2022-08-04T14:29:25.012Z,36.30
2022-08-04T14:31:36.741Z,36.40
2022-08-04T14:34:28.975Z,36.40
2022-08-04T14:37:16.312Z,36.50
2022-08-04T14:40:17.826Z,36.40
2022-08-04T14:42:44.034Z,36.40
2022-08-04T14:45:13.125Z,36.30
2022-08-04T14:47:52.991Z,36.40
2022-08-04T14:50:34.680Z,36.30
2022-08-04T14:53:07.419Z,36.30
2022-08-04T14:55:40.318Z,36.30
2022-08-04T14:58:34.001Z,36.40
2022-08-04T15:00:59.471Z,36.50
2022-08-04T15:03:29.061Z,36.40
2022-08-04T15:06:02.836Z,36.20
2022-08-04T15:08:33.285Z,36.00
2022-08-04T15:11:03.839Z,35.70
2022-08-04T15:13:33.936Z,35.60
2022-08-04T15:16:06.931Z,35.50
2022-08-04T15:18:39.055Z,35.30
2022-08-04T15:21:08.407Z,35.20
2022-08-04T15:23:38.675Z,35.20
2022-08-04T15:26:11.527Z,35.40
2022-08-04T15:28:41.576Z,35.40
2022-08-04T15:32:04.292Z,35.60
2022-08-04T15:33:59.918Z,35.60
2022-08-04T15:36:33.257Z,35.80
2022-08-04T15:39:05.241Z,35.90
2022-08-04T15:41:38.091Z,35.60
2022-08-04T15:44:27.662Z,35.40
2022-08-04T15:47:13.559Z,35.20
2022-08-04T15:49:43.259Z,35.20
2022-08-04T15:52:13.039Z,35.10
2022-08-04T15:54:42.537Z,35.00
2022-08-04T15:57:42.260Z,35.00
2022-08-04T16:00:15.135Z,35.10
2022-08-04T16:02:45.161Z,35.20
2022-08-04T16:05:35.877Z,35.50
2022-08-04T16:08:11.853Z,35.60
2022-08-04T16:10:41.448Z,35.60
2022-08-04T16:13:14.087Z,35.60
2022-08-04T16:15:44.390Z,35.50
2022-08-04T16:18:26.238Z,35.50
2022-08-04T16:21:04.379Z,35.50
2022-08-04T16:24:02.246Z,35.50
2022-08-04T16:26:54.939Z,35.30
2022-08-04T16:29:34.390Z,35.40
2022-08-04T16:32:12.858Z,35.40
2022-08-04T16:34:50.459Z,35.40
2022-08-04T16:37:24.649Z,35.40
2022-08-04T16:40:13.259Z,35.40
2022-08-04T16:42:41.839Z,35.40
2022-08-04T16:45:14.158Z,35.50
2022-08-04T16:47:57.388Z,35.50
2022-08-04T16:50:26.467Z,35.40
2022-08-04T16:52:55.336Z,35.20
2022-08-04T16:55:24.715Z,35.20
2022-08-04T16:57:54.675Z,35.20
2022-08-04T17:00:32.006Z,35.20
2022-08-04T17:03:03.008Z,35.00
2022-08-04T17:05:39.620Z,35.00
2022-08-04T17:10:57.640Z,35.10
2022-08-04T17:14:04.011Z,35.00
2022-08-04T17:16:19.618Z,34.70
2022-08-04T17:18:50.141Z,34.70
2022-08-04T17:21:20.093Z,34.60
2022-08-04T17:24:14.642Z,34.40
2022-08-04T17:26:41.282Z,34.30
2022-08-04T17:29:10.483Z,34.30
2022-08-04T17:31:40.746Z,34.10
2022-08-04T17:34:15.909Z,34.00
2022-08-04T17:36:48.083Z,34.00
2022-08-04T17:39:21.303Z,34.10
2022-08-04T17:41:56.557Z,34.00
2022-08-04T17:44:36.375Z,34.00
2022-08-04T17:47:18.144Z,33.90
2022-08-04T17:49:53.373Z,33.80
2022-08-04T17:52:44.673Z,33.70
2022-08-04T17:58:21.254Z,33.40
2022-08-04T18:03:51.553Z,33.30
2022-08-04T18:06:21.845Z,33.20
2022-08-04T18:08:57.443Z,33.10
2022-08-04T18:11:29.700Z,33.10
2022-08-04T18:14:10.356Z,33.10
2022-08-04T18:16:44.526Z,33.10
2022-08-04T18:19:15.434Z,33.00
2022-08-04T18:21:59.528Z,32.90
2022-08-04T18:24:35.212Z,32.80
2022-08-04T18:27:19.193Z,32.70
2022-08-04T18:29:50.219Z,32.60
2022-08-04T18:32:37.053Z,32.60
2022-08-04T18:35:22.957Z,32.50
2022-08-04T18:38:06.214Z,32.40
2022-08-04T18:40:53.269Z,32.30
2022-08-04T18:43:28.716Z,32.20
2022-08-04T18:46:14.784Z,32.20
2022-08-04T18:48:52.455Z,32.10
2022-08-04T18:51:31.124Z,32.00
2022-08-04T18:53:59.947Z,31.90
2022-08-04T18:56:32.644Z,31.90
2022-08-04T19:02:12.554Z,31.70
2022-08-04T19:04:44.844Z,31.70
2022-08-04T19:10:26.574Z,31.50
2022-08-04T19:12:56.923Z,31.40
2022-08-04T19:15:34.221Z,31.30
2022-08-04T19:18:07.108Z,31.20
2022-08-04T19:20:40.254Z,31.20
2022-08-04T19:24:28.101Z,31.10
2022-08-04T19:26:08.249Z,31.00
2022-08-04T19:28:42.125Z,31.00
2022-08-04T19:31:19.129Z,30.90
2022-08-04T19:33:59.312Z,30.90
2022-08-04T19:36:34.183Z,30.90
2022-08-04T19:42:05.970Z,30.70
2022-08-04T19:44:44.692Z,31.00
2022-08-04T19:48:22.159Z,30.70
2022-08-04T19:50:10.396Z,30.60
2022-08-04T19:52:45.884Z,30.60
2022-08-04T19:55:37.283Z,30.60
2022-08-04T20:01:43.724Z,30.40
2022-08-04T20:04:16.112Z,30.40
2022-08-04T20:06:46.291Z,30.40
2022-08-04T20:09:24.449Z,30.30
2022-08-04T20:11:59.668Z,30.30
2022-08-04T20:14:33.263Z,30.20
2022-08-04T20:17:09.963Z,30.20
2022-08-04T20:19:41.154Z,30.20
2022-08-04T20:22:50.954Z,30.20
2022-08-04T20:25:35.984Z,30.20
2022-08-04T20:28:00.384Z,30.20
2022-08-04T20:30:33.392Z,30.10
2022-08-04T20:33:04.216Z,30.10
2022-08-04T20:35:45.899Z,30.10
2022-08-04T20:38:33.370Z,30.10
2022-08-04T20:41:23.404Z,30.10
2022-08-04T20:46:45.525Z,30.00
2022-08-04T20:56:19.159Z,30.00
2022-08-04T20:59:18.461Z,30.10
2022-08-04T21:02:16.210Z,30.00
2022-08-04T21:04:48.774Z,30.10
2022-08-04T21:07:19.354Z,30.00
2022-08-04T21:09:50.828Z,29.90
2022-08-04T21:12:27.397Z,29.90
2022-08-04T21:15:13.670Z,29.90
2022-08-04T21:32:10.093Z,29.60
2022-08-04T21:35:00.843Z,29.60
2022-08-04T21:45:13.013Z,29.50
2022-08-04T21:47:46.466Z,29.20
2022-08-04T21:50:19.935Z,29.20
2022-08-04T21:56:06.560Z,29.10
2022-08-04T21:58:32.577Z,29.00
2022-08-04T22:01:01.774Z,28.90
2022-08-04T22:03:52.315Z,28.90
2022-08-04T22:06:28.457Z,28.90
2022-08-04T22:08:58.494Z,28.80
2022-08-04T22:11:43.770Z,28.70
2022-08-04T22:14:17.393Z,28.70
2022-08-04T22:16:58.625Z,28.60
2022-08-04T22:19:39.746Z,28.50
2022-08-04T22:22:25.496Z,28.50
2022-08-04T22:24:58.697Z,28.40
2022-08-04T22:27:47.218Z,28.40
2022-08-04T22:30:18.100Z,28.30
2022-08-04T22:32:47.184Z,28.20
2022-08-04T22:35:35.666Z,28.20
2022-08-04T22:38:28.149Z,28.20
2022-08-04T22:40:57.622Z,28.10
2022-08-04T22:43:32.226Z,28.00
2022-08-04T22:46:05.421Z,27.90
2022-08-04T22:48:36.354Z,27.80
2022-08-04T22:51:07.672Z,27.70
2022-08-04T22:53:36.914Z,27.60
2022-08-04T22:56:09.419Z,27.60
2022-08-04T22:58:40.710Z,27.50
2022-08-04T23:01:15.189Z,27.40
2022-08-04T23:03:55.467Z,27.30
2022-08-04T23:06:28.600Z,27.20
2022-08-04T23:08:59.254Z,27.30
2022-08-04T23:11:34.820Z,27.30
2022-08-04T23:14:05.824Z,27.30
2022-08-04T23:16:42.113Z,27.20
2022-08-04T23:19:15.151Z,27.10
2022-08-04T23:21:47.752Z,27.00
2022-08-04T23:24:29.809Z,26.90
2022-08-04T23:26:59.045Z,26.80
2022-08-04T23:29:27.746Z,26.80
2022-08-04T23:32:20.180Z,26.80
2022-08-04T23:34:49.442Z,26.80
2022-08-04T23:37:19.456Z,26.80
2022-08-04T23:40:14.490Z,26.80
2022-08-04T23:42:37.233Z,26.70
2022-08-04T23:46:01.961Z,26.60
2022-08-04T23:48:14.478Z,26.60
2022-08-04T23:50:45.509Z,26.50
2022-08-04T23:53:18.803Z,26.50
2022-08-04T23:55:51.222Z,26.40
2022-08-04T23:58:26.918Z,26.20
